Weather observations for the past three days for
Brunswick County Airport
Imperial (Metric)
Date Time (edt) Wind (mph) Vis. (mi.) Weather Sky Cond. Temperature (ºF) Relative Humidity Wind Chill (°F) Heat Index (°F) Pressure Precipitation (in)
Air Dwpt 6 hour altimeter (in) sea level (mb) 1 hr 3 hr 6 hr
Max. Min.
04 09:35 SW 9 10.00 Partly Cloudy SCT016 SCT023 86 77 75% 97 30.03 0.0
04 09:15 SW 9 10.00 A Few Clouds FEW016 84.2 77 79% 94 30.03 0.0
04 08:55 SW 9 10.00 Partly Cloudy SCT016 84.2 77 79% 94 30.03 0.0
04 08:35 SW 8 10.00 A Few Clouds FEW016 84.2 77 79% 94 30.03 0.0
04 08:15 SW 9 10.00 Fair CLR 82.4 77 84% 91 30.03 0.0
04 07:55 SW 6 10.00 Fair CLR 80.6 77 83.1 76.1 89% 87 30.03 0.0
04 07:35 Calm 10.00 Partly Cloudy FEW018 SCT033 77 75.2 94% 78 30.03 0.0
04 07:15 N 1 10.00 Mostly Cloudy BKN018 BKN025 77 75.2 94% 78 30.02 0.0
04 06:55 N 2 10.00 Mostly Cloudy BKN016 BKN021 BKN026 77 75.2 94% 78 30.02 0.0
04 06:35 N 3 10.00 Fair CLR 77 75.2 94% 78 30.01 0.0
04 06:15 N 3 10.00 A Few Clouds FEW020 77 75.2 94% 78 30.01 0.0
04 05:55 N 2 10.00 Mostly Cloudy BKN020 77 75.2 94% 78 30.01 0.0
04 05:35 N 2 10.00 Partly Cloudy SCT018 77 77 100% 78 30 0.0
04 05:15 N 2 10.00 Fair CLR 77 75.2 94% 78 30 0.0
04 04:55 N 2 10.00 Fair CLR 78.8 75.2 89% 82 30 0.0
04 04:35 SW 2 10.00 A Few Clouds FEW018 80.6 77 89% 87 30 0.0
04 04:15 S 3 10.00 A Few Clouds FEW016 82.4 77 84% 91 30 0.0
04 03:55 SW 5 10.00 A Few Clouds FEW014 FEW022 82.4 77 84% 91 30 0.0
04 03:35 S 5 10.00 Mostly Cloudy BKN014 BKN020 82.4 77 84% 91 30 0.0
04 03:15 S 5 10.00 Mostly Cloudy BKN016 BKN020 BKN028 82.4 78.8 89% 92 30.01 0.0
04 02:55 SW 3 10.00 Overcast BKN018 OVC023 82.4 77 84% 91 30 0.0
04 02:35 SW 6 10.00 Mostly Cloudy BKN018 BKN026 BKN030 82.4 77 84% 91 30 0.0
04 02:15 S 3 10.00 Partly Cloudy SCT016 SCT023 82.4 77 84% 91 30.02 0.0
04 01:55 SW 6 10.00 Mostly Cloudy BKN018 BKN026 82.4 77 83.7 82.6 84% 91 30.02 0.0
04 01:35 Vrbl 5 10.00 Mostly Cloudy BKN018 82.4 77 84% 91 30.03 0.0
04 01:15 Vrbl 6 10.00 Mostly Cloudy BKN016 82.4 77 84% 91 30.04 0.0
04 00:55 S 5 10.00 Partly Cloudy SCT018 82.4 77 84% 91 30.04 0.0
04 00:35 S 6 10.00 Partly Cloudy SCT016 82.4 77 84% 91 30.04 0.0
04 00:15 Vrbl 5 10.00 Mostly Cloudy BKN018 82.4 77 84% 91 30.05 0.0
03 23:55 S 5 10.00 Mostly Cloudy BKN018 BKN023 82.4 77 84% 91 30.05 0.0
03 23:35 SW 6 10.00 Mostly Cloudy BKN018 BKN022 82.4 77 84% 91 30.05 0.0
03 23:15 S 5 10.00 A Few Clouds FEW018 82.4 77 84% 91 30.05 0.0
03 22:55 S 3 10.00 Fair CLR 82.4 77 84% 91 30.05 0.0
03 22:35 S 3 10.00 A Few Clouds FEW017 82.4 77 84% 91 30.06 0.0
03 22:15 S 5 10.00 A Few Clouds FEW017 82.4 77 84% 91 30.05 0.0
03 21:55 S 5 10.00 A Few Clouds FEW019 82.4 77 84% 91 30.05 0.0
03 21:35 SW 6 10.00 A Few Clouds FEW019 82.4 77 84% 91 30.04 0.0
03 21:15 SW 5 10.00 A Few Clouds FEW019 82.4 77 84% 91 30.03 0.0
03 20:55 S 5 10.00 A Few Clouds FEW019 82.4 77 84% 91 30.03 0.0
03 20:35 S 5 10.00 Partly Cloudy SCT017 84.2 77 79% 94 30.02 0.0
03 20:15 S 6 10.00 Partly Cloudy SCT017 84.2 77 79% 94 30.01 0.0
03 19:55 S 6 10.00 Partly Cloudy SCT017 84.2 77 90.1 83.3 79% 94 30.01 0.0
03 19:35 S 5 10.00 Mostly Cloudy BKN017 84.2 77 79% 94 30.01 0.0
03 19:15 S 7 10.00 Partly Cloudy SCT017 SCT030 84.2 77 79% 94 30.02 0.0
03 18:55 S 6 10.00 Mostly Cloudy BKN019 BKN030 84.2 77 79% 94 30.02 0.0
03 18:35 S 7 10.00 Mostly Cloudy BKN017 86 77 75% 97 30.02 0.0
03 18:15 S 7 10.00 Partly Cloudy SCT017 SCT029 86 77 75% 97 30.02 0.0
03 17:55 Vrbl 6 10.00 Partly Cloudy SCT017 SCT022 SCT031 86 77 75% 97 30.02 0.0
03 17:35 S 8 10.00 Partly Cloudy SCT017 86 77 75% 97 30.02 0.0
03 17:15 S 7 10.00 Mostly Cloudy BKN017 86 77 75% 97 30.02 0.0
03 16:55 S 8 10.00 Partly Cloudy SCT017 87.8 77 70% 100 30.03 0.0
03 16:35 S 6 10.00 A Few Clouds FEW019 86 77 75% 97 30.03 0.0
03 16:15 S 8 10.00 A Few Clouds FEW019 87.8 77 70% 100 30.04 0.0
03 15:55 S 8 10.00 Fair CLR 87.8 77 70% 100 30.04 0.0
03 15:35 S 6 10.00 Fair CLR 87.8 75.2 66% 98 30.04 0.0
03 15:15 S 8 10.00 Fair CLR 87.8 75.2 66% 98 30.04 0.0
03 14:55 Vrbl 6 10.00 Fair CLR 87.8 75.2 66% 98 30.05 0.0
03 14:35 S 7 10.00 Fair CLR 87.8 75.2 66% 98 30.06 0.0
03 14:15 SE 8 10.00 Fair CLR 89.6 73.4 59% 98 30.06 0.0
03 13:55 SE 7 10.00 Fair CLR 87.8 73.4 88.9 77.5 62% 96 30.06 0.0
03 13:35 S 8 10.00 Fair CLR 87.8 73.4 62% 96 30.06 0.0
03 13:15 S 7 10.00 Fair CLR 87.8 75.2 66% 98 30.07 0.0
03 12:55 Vrbl 5 10.00 Fair CLR 87.8 77 70% 100 30.07 0.0
03 12:35 SE 8 10.00 Fair CLR 87.8 77 70% 100 30.07 0.0
03 12:15 Vrbl 7 10.00 Fair CLR 87.8 77 70% 100 30.08 0.0
03 11:55 SE 6 8.00 Partly Cloudy SCT018 87.8 77 70% 100 30.08 0.0
03 11:35 S 7 10.00 Mostly Cloudy BKN020 86 77 75% 97 30.08 0.0
03 11:15 S 7 10.00 Mostly Cloudy BKN020 BKN028 86 77 75% 97 30.08 0.0
03 10:55 Vrbl 7 10.00 Mostly Cloudy BKN022 BKN028 87.8 77 70% 100 30.08 0.0
03 10:35 S 3 10.00 Partly Cloudy SCT022 SCT050 86 77 75% 97 30.08 0.0
03 10:15 Calm 10.00 Partly Cloudy FEW020 SCT050 84.2 75.2 74% 92 30.07 0.0
03 09:55 Calm 10.00 Partly Cloudy FEW017 SCT050 84.2 77 79% 94 30.07 0.0
03 09:35 Vrbl 1 10.00 Partly Cloudy SCT017 84.2 77 79% 94 30.06 0.0
03 09:15 Vrbl 1 10.00 A Few Clouds FEW015 84.2 77 79% 94 30.07 0.0
03 08:55 Vrbl 2 10.00 Fair CLR 82.4 77 84% 91 30.07 0.0
03 08:35 Calm 10.00 Fair CLR 80.6 77 89% 87 30.07 0.0
03 08:15 NE 2 10.00 Fair CLR 78.8 77 94% 83 30.07 0.0
03 07:55 NE 2 10.00 Fair CLR 77 77 82.2 74.8 100% 78 30.07 0.0
03 07:35 N 2 10.00 Fair CLR 77 75.2 94% 78 30.07 0.0
03 07:15 NE 3 10.00 Fair CLR 75.2 73.4 94% 74 30.06 0.0
03 06:55 NE 3 10.00 Fair CLR 75.2 73.4 94% 74 30.05 0.0
03 06:35 NE 3 10.00 Fair CLR 75.2 75.2 100% 73 30.04 0.0
03 06:15 NE 1 10.00 A Few Clouds FEW016 77 75.2 94% 78 30.04 0.0
03 05:55 N 1 10.00 A Few Clouds FEW016 75.2 75.2 100% 73 30.04 0.0
03 05:35 N 3 10.00 A Few Clouds FEW016 75.2 75.2 100% 73 30.04 0.0
03 05:15 N 2 10.00 Fair CLR 75.2 75.2 100% 73 30.03 0.0
03 04:55 N 2 10.00 A Few Clouds FEW014 77 75.2 94% 78 30.03 0.0
03 04:35 Calm 10.00 Partly Cloudy SCT014 77 75.2 94% 78 30.03 0.0
03 04:15 W 1 10.00 A Few Clouds FEW014 78.8 75.2 89% 82 30.03 0.0
03 03:55 S 3 10.00 A Few Clouds FEW014 82.4 77 84% 91 30.03 0.0
03 03:35 S 3 10.00 Fair CLR 82.4 77 84% 91 30.02 0.0
03 03:15 S 3 10.00 Fair CLR 82.4 77 84% 91 30.02 0.0
03 02:55 Vrbl 5 10.00 Fair CLR 82.4 77 84% 91 30.02 0.0
03 02:35 S 3 10.00 Fair CLR 82.4 77 84% 91 30.02 0.0
03 02:15 S 5 10.00 Fair CLR 82.4 75.2 79% 89 30.02 0.0
03 01:55 S 5 10.00 A Few Clouds FEW060 82.4 75.2 83.5 78.4 79% 89 30.03 0.0
03 01:35 S 2 10.00 Partly Cloudy SCT060 80.6 75.2 84% 86 30.03 0.0
03 01:15 W 1 10.00 Fair CLR 80.6 75.2 84% 86 30.03 0.0
03 00:55 S 3 10.00 Fair CLR 82.4 73.4 74% 88 30.03 0.0
03 00:35 S 3 10.00 Fair CLR 82.4 73.4 74% 88 30.03 0.0
03 00:15 SW 3 10.00 Fair CLR 82.4 75.2 79% 89 30.03 0.0
02 23:55 S 5 10.00 Fair CLR 82.4 75.2 79% 89 30.03 0.0
02 23:35 Vrbl 5 10.00 Fair CLR 82.4 73.4 74% 88 30.03 0.0
02 23:15 S 7 10.00 Fair CLR 82.4 75.2 79% 89 30.02 0.0
02 22:55 S 6 10.00 Fair CLR 82.4 75.2 79% 89 30.03 0.0
02 22:35 Vrbl 6 10.00 Partly Cloudy SCT065 82.4 75.2 79% 89 30.05 0.0
02 22:15 S 5 10.00 Mostly Cloudy BKN065 82.4 75.2 79% 89 30.06 0.0
02 21:55 Vrbl 3 10.00 Fair CLR 82.4 75.2 79% 89 30.07 0.0
02 21:35 S 3 10.00 Fair CLR 82.4 75.2 79% 89 30.06 0.0
02 21:15 S 3 10.00 Fair CLR 82.4 75.2 79% 89 30.05 0.0
02 20:55 S 3 10.00 Fair CLR 82.4 75.2 79% 89 30.05 0.0
02 20:35 Vrbl 3 10.00 Fair CLR 82.4 75.2 79% 89 30.04 0.0
02 20:15 S 3 10.00 Fair CLR 84.2 75.2 74% 92 30.04 0.0
02 19:55 S 5 10.00 Fair CLR 84.2 75.2 91.6 83.3 74% 92 30.03 0.0
02 19:35 S 5 10.00 Fair CLR 84.2 75.2 74% 92 30.03 0.0
02 19:15 Vrbl 3 10.00 Fair CLR 84.2 75.2 74% 92 30.03 0.0
02 18:55 S 6 10.00 Fair CLR 86 75.2 70% 95 30.04 0.0
02 18:35 S 7 10.00 Fair CLR 86 75.2 70% 95 30.03 0.0
02 18:15 S 7 10.00 Fair CLR 86 75.2 70% 95 30.03 0.0
02 17:55 S 7 10.00 Fair CLR 86 77 75% 97 30.02 0.0
02 17:35 S 7 10.00 Fair CLR 86 75.2 70% 95 30.02 0.0
02 17:15 S 7 10.00 Fair CLR 87.8 73.4 62% 96 30.03 0.0
02 16:55 S 7 10.00 Fair CLR 87.8 75.2 66% 98 30.03 0.0
02 16:35 S 9 10.00 Fair CLR 87.8 73.4 62% 96 30.03 0.0
02 16:15 S 9 10.00 Fair CLR 87.8 75.2 66% 98 30.04 0.0
02 15:55 S 9 10.00 Fair CLR 87.8 75.2 66% 98 30.05 0.0
02 15:35 S 8 10.00 Fair CLR 87.8 75.2 66% 98 30.05 0.0
02 15:15 S 8 10.00 Fair CLR 89.6 73.4 59% 98 30.05 0.0
02 14:55 S 9 10.00 Fair CLR 87.8 75.2 66% 98 30.05 0.0
02 14:35 S 8 10.00 Partly Cloudy SCT075 89.6 75.2 63% 100 30.06 0.0
02 14:15 S 6 10.00 Partly Cloudy SCT085 91.4 75.2 59% 103 30.06 0.0
02 13:55 SW 8 10.00 Fair CLR 89.6 75.2 91.6 77.4 63% 100 30.06 0.0
02 13:35 SW 9 10.00 Fair CLR 89.6 75.2 63% 100 30.06 0.0
02 13:15 SW 6 10.00 Fair CLR 89.6 75.2 63% 100 30.06 0.0
02 12:55 S 6 10.00 Fair CLR 89.6 75.2 63% 100 30.06 0.0
02 12:35 S 8 10.00 Fair CLR 89.6 75.2 63% 100 30.07 0.0
02 12:15 SW 8 10.00 Fair CLR 89.6 75.2 63% 100 30.07 0.0
02 11:55 SW 9 10.00 Fair CLR 87.8 77 70% 100 30.07 0.0
02 11:35 SW 7 10.00 Fair CLR 87.8 77 70% 100 30.07 0.0
02 11:15 SW 8 10.00 Fair CLR 87.8 77 70% 100 30.06 0.0
02 10:55 W 3 10.00 Fair CLR 87.8 73.4 62% 96 30.07 0.0
02 10:35 SW 6 10.00 Fair CLR 87.8 75.2 66% 98 30.07 0.0
02 10:15 W 3 10.00 Fair CLR 86 75.2 70% 95 30.07 0.0
02 09:55 W 5 10.00 Fair CLR 84.2 75.2 74% 92 30.07 0.0
02 09:35 W 5 10.00 Fair CLR 82.4 77 84% 91 30.08 0.0
02 09:15 W 3 10.00 Fair CLR 82.4 77 84% 91 30.08 0.0
02 08:55 Vrbl 3 10.00 Fair CLR 80.6 77 89% 87 30.08 0.0
02 08:35 NW 3 10.00 Fair CLR 78.8 77 94% 83 30.09 0.0
02 08:15 NW 3 10.00 Fair CLR 78.8 77 94% 83 30.09 0.0
02 07:55 NW 3 10.00 Fair CLR 77 75.2 81 74.8 94% 78 30.08 0.0
02 07:35 NW 3 10.00 Fair CLR 77 75.2 94% 78 30.08 0.0
02 07:15 N 2 10.00 Fair CLR 75.2 75.2 100% 73 30.08 0.0
02 06:55 NW 1 10.00 Fair CLR 75.2 75.2 100% 73 30.07 0.0
02 06:35 N 2 10.00 Fair CLR 75.2 75.2 100% 73 30.07 0.0
02 06:15 N 1 10.00 Fair CLR 75.2 73.4 94% 74 30.07 0.0
02 05:55 N 1 10.00 A Few Clouds FEW014 75.2 75.2 100% 73 30.06 0.0
02 05:35 N 2 10.00 Fair CLR 75.2 75.2 100% 73 30.06 0.0
02 05:15 NE 2 10.00 Fair CLR 75.2 75.2 100% 73 30.06 0.0
02 04:55 NE 2 10.00 Fair CLR 75.2 75.2 100% 73 30.05 0.0
02 04:35 NE 1 10.00 Fair CLR 77 75.2 94% 78 30.06 0.0
02 04:15 NE 2 10.00 Fair CLR 77 75.2 94% 78 30.05 0.0
02 03:55 NE 2 10.00 Fair CLR 77 75.2 94% 78 30.05 0.0
02 03:35 N 2 10.00 Fair CLR 77 75.2 94% 78 30.05 0.0
02 03:15 Calm 10.00 Fair CLR 77 75.2 94% 78 30.05 0.0
02 02:55 Calm 10.00 Fair CLR 78.8 75.2 89% 82 30.05 0.0
02 02:35 Calm 10.00 Fair CLR 78.8 75.2 89% 82 30.06 0.0
02 02:15 W 3 10.00 Fair CLR 80.6 75.2 84% 86 30.06 0.0
02 01:55 SW 6 10.00 Fair CLR 80.6 75.2 82.2 80.2 84% 86 30.06 0.0
02 01:35 SW 6 10.00 Fair CLR 80.6 75.2 84% 86 30.05 0.0
02 01:15 SW 7 10.00 Fair CLR 80.6 77 89% 87 30.05 0.0
02 00:55 SW 6 10.00 Fair CLR 80.6 77 89% 87 30.05 0.0
02 00:35 S 5 10.00 Fair CLR 80.6 75.2 84% 86 30.05 0.0
02 00:15 SW 5 10.00 Fair CLR 80.6 77 89% 87 30.05 0.0
01 23:55 S 6 10.00 Fair CLR 80.6 77 89% 87 30.05 0.0
01 23:35 S 6 10.00 Fair CLR 80.6 77 89% 87 30.04 0.0
01 23:15 S 5 10.00 Fair CLR 80.6 75.2 84% 86 30.04 0.0
01 22:55 S 5 10.00 Fair CLR 80.6 77 89% 87 30.04 0.0
01 22:35 S 5 10.00 Fair CLR 80.6 75.2 84% 86 30.05 0.0
01 22:15 S 3 10.00 Fair CLR 80.6 75.2 84% 86 30.05 0.0
01 21:55 S 5 10.00 Fair CLR 82.4 75.2 79% 89 30.05 0.0
01 21:35 S 5 10.00 Fair CLR 82.4 77 84% 91 30.05 0.0
01 21:15 S 2 10.00 Fair CLR 80.6 75.2 84% 86 30.05 0.0
01 20:55 S 3 10.00 Fair CLR 80.6 75.2 84% 86 30.05 0.0
01 20:35 S 3 10.00 Fair CLR 82.4 75.2 79% 89 30.04 0.0
01 20:15 S 2 10.00 Fair CLR 82.4 75.2 79% 89 30.04 0.0
01 19:55 S 3 10.00 Fair CLR 82.4 75.2 89.1 81.9 79% 89 30.04 0.0
01 19:35 S 3 10.00 Fair CLR 82.4 75.2 79% 89 30.04 0.0
01 19:15 S 6 10.00 Fair CLR 82.4 73.4 74% 88 30.04 0.0
01 18:55 Vrbl 5 10.00 Fair CLR 84.2 73.4 70% 91 30.04 0.0
01 18:35 S 6 10.00 Fair CLR 84.2 73.4 70% 91 30.05 0.0
01 18:15 SE 6 10.00 Fair CLR 86 73.4 66% 93 30.05 0.0
01 17:55 Vrbl 5 10.00 Fair CLR 84.2 75.2 74% 92 30.04 0.0
01 17:35 Vrbl 7 10.00 Fair CLR 86 75.2 70% 95 30.04 0.0
01 17:15 S 7 10.00 Fair CLR 86 73.4 66% 93 30.04 0.0
01 16:55 S 6 10.00 Fair CLR 86 73.4 66% 93 30.04 0.0
01 16:35 SE 6 10.00 Fair CLR 87.8 75.2 66% 98 30.05 0.0
01 16:15 Vrbl 6 10.00 Fair CLR 87.8 73.4 62% 96 30.04 0.0
01 15:55 S 7 10.00 Fair CLR 86 73.4 66% 93 30.05 0.0
01 15:35 Vrbl 5 10.00 Fair CLR 87.8 75.2 66% 98 30.06 0.0
01 15:15 S 9 10.00 Fair CLR 86 75.2 70% 95 30.06 0.0
01 14:55 SE 6 10.00 Fair CLR 87.8 75.2 66% 98 30.06 0.0
01 14:35 S 7 10.00 Fair CLR 87.8 75.2 66% 98 30.07 0.0
01 14:15 S 7 10.00 Fair CLR 87.8 75.2 66% 98 30.07 0.0
01 13:55 Vrbl 5 10.00 Fair CLR 87.8 75.2 90.1 75 66% 98 30.07 0.0
01 13:35 S 8 10.00 Fair CLR 87.8 75.2 66% 98 30.07 0.0
01 13:15 SE 7 10.00 Fair CLR 87.8 75.2 66% 98 30.07 0.0
01 12:55 S 8 10.00 Fair CLR 87.8 75.2 66% 98 30.08 0.0
01 12:35 SE 8 10.00 Partly Cloudy SCT035 87.8 75.2 66% 98 30.08 0.0
01 12:15 Vrbl 7 10.00 Overcast BKN035 OVC041 89.6 73.4 59% 98 30.09 0.0
01 11:55 Vrbl 3 10.00 Mostly Cloudy BKN035 87.8 73.4 62% 96 30.09 0.0
01 11:35 Vrbl 2 10.00 A Few Clouds FEW033 86 73.4 66% 93 30.09 0.0
01 11:15 NW 6 10.00 Fair CLR 86 73.4 66% 93 30.09 0.0
01 10:55 NE 6 10.00 Fair CLR 86 73.4 66% 93 30.1 0.0
01 10:35 Vrbl 6 10.00 Fair CLR 84.2 73.4 70% 91 30.1 0.0
01 10:15 N 7 10.00 Fair CLR 82.4 73.4 74% 88 30.1 0.0
Date Time (edt) Wind (mph) Vis. (mi.) Weather Sky Cond. Air Dwpt Max. Min. Relative Humidity Wind Chill (°F) Heat Index (°F) altimeter (in) sea level (mb) 1 hr 3 hr 6 hr
6 hour
Temperature (ºF) Pressure Precipitation (in)